Time;durP1;ratioP1;P1;durP2;ratioP2;P2;SDS_P1;SDS_P2;PMS_P1;PMS_P2;Temp;Humidity;BMP_temperature;BMP_pressure;BME280_temperature;BME280_humidity;BME280_pressure;Samples;Min_cycle;Max_cycle;Signal;HPM_P1;HPM_P2
2024/04/23 00:00:12;;;;;;;8.73;3.87;;;;;;;;;;5173810;27;20144;-76
2024/04/23 00:02:38;;;;;;;5.17;3.17;;;;;;;;;;5172656;27;20445;-76
2024/04/23 00:05:03;;;;;;;6.20;3.63;;;;;;;;;;5172225;27;20023;-76
2024/04/23 00:07:29;;;;;;;7.27;4.23;;;;;;;;;;5199463;27;20008;-75
2024/04/23 00:09:54;;;;;;;9.43;4.20;;;;;;;;;;5173892;27;20008;-76
2024/04/23 00:12:20;;;;;;;8.03;3.90;;;;;;;;;;5174463;27;20038;-75
2024/04/23 00:14:49;;;;;;;5.30;3.57;;;;;;;;;;5172500;27;20008;-77
2024/04/23 00:17:14;;;;;;;7.00;3.40;;;;;;;;;;5175415;27;20023;-76
2024/04/23 00:19:40;;;;;;;6.63;3.50;;;;;;;;;;5171793;27;20008;-76
2024/04/23 00:22:05;;;;;;;6.23;3.47;;;;;;;;;;5171139;27;20009;-77
2024/04/23 00:24:34;;;;;;;6.67;3.40;;;;;;;;;;5172754;27;20020;-77
2024/04/23 00:27:01;;;;;;;8.47;3.80;;;;;;;;;;5173706;27;20015;-77
2024/04/23 00:29:28;;;;;;;7.47;4.07;;;;;;;;;;5172164;27;20000;-76
2024/04/23 00:31:53;;;;;;;6.33;4.17;;;;;;;;;;5171913;27;20012;-77
2024/04/23 00:34:19;;;;;;;6.23;3.60;;;;;;;;;;5172352;27;20009;-76
2024/04/23 00:36:55;;;;;;;7.43;4.27;;;;;;;;;;5174060;27;20072;-77
2024/04/23 00:39:21;;;;;;;6.17;4.13;;;;;;;;;;5171808;27;20044;-77
2024/04/23 00:41:47;;;;;;;10.53;4.57;;;;;;;;;;5171799;27;20008;-77
2024/04/23 00:44:12;;;;;;;4.60;3.47;;;;;;;;;;5199312;27;20353;-77
2024/04/23 00:46:39;;;;;;;5.97;3.70;;;;;;;;;;5172110;27;20009;-78
2024/04/23 00:49:08;;;;;;;6.97;4.30;;;;;;;;;;5199550;27;20013;-77
2024/04/23 00:51:34;;;;;;;8.73;4.33;;;;;;;;;;5198947;27;20023;-77
2024/04/23 00:53:59;;;;;;;10.53;5.47;;;;;;;;;;5172514;27;20008;-76
2024/04/23 00:56:25;;;;;;;7.13;4.30;;;;;;;;;;5175317;27;20005;-75
2024/04/23 00:58:52;;;;;;;10.77;4.43;;;;;;;;;;5172815;27;20071;-74
2024/04/23 01:01:18;;;;;;;5.57;3.53;;;;;;;;;;5172147;27;20008;-76
2024/04/23 01:03:44;;;;;;;6.47;3.90;;;;;;;;;;5173330;27;20016;-75
2024/04/23 01:06:10;;;;;;;9.17;4.57;;;;;;;;;;5172820;27;20481;-76
2024/04/23 01:08:35;;;;;;;8.70;4.50;;;;;;;;;;5173205;27;20012;-76
2024/04/23 01:11:02;;;;;;;7.67;4.50;;;;;;;;;;5170670;27;20345;-76
2024/04/23 01:13:29;;;;;;;6.83;4.23;;;;;;;;;;5173230;27;20004;-77
2024/04/23 01:15:55;;;;;;;9.03;5.07;;;;;;;;;;5173193;27;20020;-77
2024/04/23 01:18:22;;;;;;;7.20;4.60;;;;;;;;;;5173929;27;20221;-76
2024/04/23 01:20:54;;;;;;;9.57;4.43;;;;;;;;;;5171780;27;20004;-77
2024/04/23 01:23:22;;;;;;;;;;;;;;;;;;5174598;27;20008;-77
2024/04/23 01:25:51;;;;;;;7.13;4.57;;;;;;;;;;5173063;27;19960;-77
2024/04/23 01:28:17;;;;;;;9.27;5.40;;;;;;;;;;5173357;27;20083;-76
2024/04/23 01:30:44;;;;;;;9.60;5.03;;;;;;;;;;5172813;27;20008;-77
2024/04/23 01:33:11;;;;;;;6.37;4.13;;;;;;;;;;5170333;27;20032;-76
2024/04/23 01:35:37;;;;;;;9.57;5.10;;;;;;;;;;5171027;27;20365;-75
2024/04/23 01:38:04;;;;;;;11.13;5.30;;;;;;;;;;5170639;27;20019;-75
2024/04/23 01:40:30;;;;;;;9.70;5.43;;;;;;;;;;5170308;27;20042;-77
2024/04/23 01:42:57;;;;;;;10.17;5.30;;;;;;;;;;5198136;27;20036;-76
2024/04/23 01:45:23;;;;;;;7.57;4.43;;;;;;;;;;5199196;27;20453;-75
2024/04/23 01:47:49;;;;;;;5.90;4.70;;;;;;;;;;5198339;27;20453;-76
2024/04/23 01:50:16;;;;;;;7.90;4.27;;;;;;;;;;5197893;27;20015;-77
2024/04/23 01:52:42;;;;;;;8.63;5.00;;;;;;;;;;5170358;27;20496;-76
2024/04/23 01:55:11;;;;;;;8.10;4.73;;;;;;;;;;5172556;27;20012;-76
2024/04/23 01:57:37;;;;;;;6.37;4.90;;;;;;;;;;5171066;27;20079;-77
2024/04/23 02:00:07;;;;;;;9.17;4.57;;;;;;;;;;5170046;27;20672;-75
2024/04/23 02:02:34;;;;;;;7.87;5.00;;;;;;;;;;5170992;27;20005;-75
2024/04/23 02:05:00;;;;;;;9.23;5.17;;;;;;;;;;5171039;27;20018;-78
2024/04/23 02:07:26;;;;;;;10.90;4.93;;;;;;;;;;5171095;27;20337;-76
2024/04/23 02:09:52;;;;;;;8.37;5.03;;;;;;;;;;5170506;27;20087;-75
2024/04/23 02:12:21;;;;;;;13.03;5.47;;;;;;;;;;5170612;27;20019;-76
2024/04/23 02:14:47;;;;;;;9.13;4.70;;;;;;;;;;5197712;27;20012;-75
2024/04/23 02:17:14;;;;;;;9.13;5.13;;;;;;;;;;5175222;27;20034;-76
2024/04/23 02:19:40;;;;;;;15.57;6.17;;;;;;;;;;5172813;27;20004;-76
2024/04/23 02:22:06;;;;;;;19.97;8.37;;;;;;;;;;5171583;27;20024;-76
2024/04/23 02:24:31;;;;;;;12.77;5.50;;;;;;;;;;5172850;27;20473;-75
2024/04/23 02:26:57;;;;;;;10.47;5.10;;;;;;;;;;5170659;27;20005;-76
2024/04/23 02:29:23;;;;;;;10.10;5.67;;;;;;;;;;5170582;27;20481;-76
2024/04/23 02:31:48;;;;;;;9.70;6.00;;;;;;;;;;5173382;27;20066;-76
2024/04/23 02:34:14;;;;;;;10.47;4.80;;;;;;;;;;5175017;27;20012;-76
2024/04/23 02:36:39;;;;;;;11.23;5.10;;;;;;;;;;5200696;27;20056;-76
2024/04/23 02:39:05;;;;;;;10.37;4.63;;;;;;;;;;5200297;27;20442;-77
2024/04/23 02:41:36;;;;;;;8.53;4.93;;;;;;;;;;5174977;27;20012;-75
2024/04/23 02:44:03;;;;;;;7.90;4.33;;;;;;;;;;5175171;27;20302;-73
2024/04/23 02:46:29;;;;;;;8.27;5.27;;;;;;;;;;5173488;27;20004;-74
2024/04/23 02:48:55;;;;;;;12.00;5.50;;;;;;;;;;5175161;27;20004;-75
2024/04/23 02:51:20;;;;;;;10.03;5.33;;;;;;;;;;5172760;27;20020;-74
2024/04/23 02:53:46;;;;;;;13.53;5.67;;;;;;;;;;5174954;27;20013;-74
2024/04/23 02:56:11;;;;;;;8.33;4.80;;;;;;;;;;5174845;27;20067;-75
2024/04/23 02:58:37;;;;;;;12.70;4.93;;;;;;;;;;5174509;27;20019;-73
2024/04/23 03:01:02;;;;;;;9.20;5.50;;;;;;;;;;5200392;27;20330;-74
2024/04/23 03:03:28;;;;;;;12.37;4.73;;;;;;;;;;5173681;27;20096;-75
2024/04/23 03:05:53;;;;;;;9.33;4.93;;;;;;;;;;5173100;27;20582;-74
2024/04/23 03:08:19;;;;;;;8.37;4.73;;;;;;;;;;5172965;27;20057;-75
2024/04/23 03:10:44;;;;;;;14.47;5.30;;;;;;;;;;5175287;27;20373;-75
2024/04/23 03:13:10;;;;;;;12.23;4.90;;;;;;;;;;5172841;27;20019;-75
2024/04/23 03:15:36;;;;;;;10.90;4.93;;;;;;;;;;5173726;27;20481;-75
2024/04/23 03:18:01;;;;;;;11.93;6.13;;;;;;;;;;5200314;27;20008;-76
2024/04/23 03:20:27;;;;;;;9.63;5.57;;;;;;;;;;5200634;27;20005;-74
2024/04/23 03:22:52;;;;;;;8.97;4.63;;;;;;;;;;5173472;27;20044;-74
2024/04/23 03:25:18;;;;;;;9.73;5.03;;;;;;;;;;5172893;27;20087;-74
2024/04/23 03:27:43;;;;;;;10.40;5.17;;;;;;;;;;5174777;27;20036;-75
2024/04/23 03:30:09;;;;;;;7.77;4.90;;;;;;;;;;5172698;27;20110;-75
2024/04/23 03:32:35;;;;;;;9.23;4.80;;;;;;;;;;5174478;27;20465;-75
2024/04/23 03:35:00;;;;;;;14.70;5.77;;;;;;;;;;5172392;27;20337;-74
2024/04/23 03:37:29;;;;;;;11.07;6.03;;;;;;;;;;5173016;27;20008;-75
2024/04/23 03:39:54;;;;;;;10.00;4.97;;;;;;;;;;5172475;27;20520;-76
2024/04/23 03:42:20;;;;;;;9.87;5.00;;;;;;;;;;5171365;27;20008;-75
2024/04/23 03:44:46;;;;;;;11.70;5.77;;;;;;;;;;5174479;27;20011;-75
2024/04/23 03:47:12;;;;;;;9.27;5.50;;;;;;;;;;5172295;27;20015;-74
2024/04/23 03:49:37;;;;;;;10.60;5.17;;;;;;;;;;5171685;27;20023;-74
2024/04/23 03:52:09;;;;;;;8.47;5.60;;;;;;;;;;5170724;27;20028;-74
2024/04/23 03:54:36;;;;;;;19.13;6.13;;;;;;;;;;5174247;27;20010;-78
2024/04/23 03:57:01;;;;;;;9.93;5.17;;;;;;;;;;5173841;27;20028;-76
2024/04/23 03:59:27;;;;;;;9.17;5.40;;;;;;;;;;5171869;27;20015;-74
2024/04/23 04:06:03;;;;;;;9.53;5.73;;;;;;;;;;5172351;27;20499;-75
2024/04/23 04:07:22;;;;;;;11.80;5.17;;;;;;;;;;5175094;27;20015;-74
2024/04/23 04:09:48;;;;;;;10.90;5.60;;;;;;;;;;5199783;27;20341;-74
2024/04/23 04:12:13;;;;;;;10.73;6.00;;;;;;;;;;5171779;27;20005;-73
2024/04/23 04:14:39;;;;;;;5.37;4.67;;;;;;;;;;5173766;27;20498;-75
2024/04/23 04:17:04;;;;;;;10.70;5.47;;;;;;;;;;5173890;27;20014;-74
2024/04/23 04:19:30;;;;;;;11.67;5.23;;;;;;;;;;5173744;27;20434;-75
2024/04/23 04:21:59;;;;;;;10.53;6.17;;;;;;;;;;5199274;27;20000;-74
2024/04/23 04:24:24;;;;;;;13.60;5.73;;;;;;;;;;5171706;27;20094;-74
2024/04/23 04:26:50;;;;;;;7.50;4.23;;;;;;;;;;5173760;27;20000;-74
2024/04/23 04:29:15;;;;;;;12.07;5.33;;;;;;;;;;5173386;27;20453;-75
2024/04/23 04:31:41;;;;;;;8.83;5.13;;;;;;;;;;5171807;27;20017;-74
2024/04/23 04:34:07;;;;;;;12.70;5.80;;;;;;;;;;5171570;27;20008;-75
2024/04/23 04:36:32;;;;;;;9.57;5.23;;;;;;;;;;5173609;27;20398;-75
2024/04/23 04:38:58;;;;;;;12.40;5.00;;;;;;;;;;5171599;27;20056;-74
2024/04/23 04:41:24;;;;;;;12.80;5.80;;;;;;;;;;5173262;27;20188;-75
2024/04/23 04:43:49;;;;;;;11.40;5.63;;;;;;;;;;5198742;27;20000;-76
2024/04/23 04:46:15;;;;;;;10.43;5.67;;;;;;;;;;5173928;27;20008;-75
2024/04/23 04:48:40;;;;;;;12.63;5.60;;;;;;;;;;5171896;27;20099;-75
2024/04/23 04:51:06;;;;;;;13.13;6.00;;;;;;;;;;5171323;27;20469;-76
2024/04/23 04:53:32;;;;;;;11.17;6.10;;;;;;;;;;5170936;27;20004;-77
2024/04/23 04:55:58;;;;;;;17.47;12.10;;;;;;;;;;5173811;27;20005;-74
2024/04/23 04:58:24;;;;;;;12.67;6.30;;;;;;;;;;5173379;27;20027;-73
2024/04/23 05:00:51;;;;;;;10.63;6.03;;;;;;;;;;5173586;27;20015;-76
2024/04/23 05:03:16;;;;;;;12.03;5.43;;;;;;;;;;5171216;27;20020;-76
2024/04/23 05:05:42;;;;;;;9.17;5.00;;;;;;;;;;5173401;27;20122;-74
2024/04/23 05:08:08;;;;;;;9.40;4.77;;;;;;;;;;5173126;27;20015;-75
2024/04/23 05:10:34;;;;;;;8.53;4.47;;;;;;;;;;5173826;27;20023;-76
2024/04/23 05:12:59;;;;;;;13.83;5.70;;;;;;;;;;5173326;27;20461;-76
2024/04/23 05:15:25;;;;;;;10.07;5.27;;;;;;;;;;5171876;27;20037;-74
2024/04/23 05:17:50;;;;;;;12.10;4.07;;;;;;;;;;5173208;27;20084;-75
2024/04/23 05:20:16;;;;;;;8.00;4.73;;;;;;;;;;5172405;27;20080;-74
2024/04/23 05:22:41;;;;;;;11.73;5.00;;;;;;;;;;5172939;27;20457;-74
2024/04/23 05:25:07;;;;;;;9.23;4.67;;;;;;;;;;5172743;27;20005;-76
2024/04/23 05:27:33;;;;;;;9.93;5.63;;;;;;;;;;5171319;27;20463;-75
2024/04/23 05:29:59;;;;;;;9.80;5.70;;;;;;;;;;5171365;27;20020;-75
2024/04/23 05:35:10;;;;;;;10.60;5.23;;;;;;;;;;5164262;27;20012;-74
2024/04/23 05:37:36;;;;;;;15.13;5.80;;;;;;;;;;5168532;27;20000;-75
2024/04/23 05:40:02;;;;;;;11.17;5.30;;;;;;;;;;5165786;27;20121;-74
2024/04/23 05:42:27;;;;;;;9.57;5.00;;;;;;;;;;5172315;27;20012;-74
2024/04/23 05:44:54;;;;;;;20.10;5.83;;;;;;;;;;5170294;27;20036;-74
2024/04/23 05:47:20;;;;;;;11.87;5.30;;;;;;;;;;5196532;27;20408;-76
2024/04/23 05:50:23;;;;;;;9.20;5.33;;;;;;;;;;5172010;27;20079;-74
2024/04/23 05:53:26;;;;;;;12.13;4.93;;;;;;;;;;5170475;27;20004;-75
2024/04/23 05:55:54;;;;;;;12.70;5.37;;;;;;;;;;5165066;27;20038;-74
2024/04/23 05:58:20;;;;;;;9.63;5.40;;;;;;;;;;5168164;27;20005;-74
2024/04/23 06:00:45;;;;;;;7.77;4.47;;;;;;;;;;5158677;27;20011;-74
2024/04/23 06:03:12;;;;;;;8.47;4.77;;;;;;;;;;5166023;27;20004;-76
2024/04/23 06:05:38;;;;;;;9.77;5.03;;;;;;;;;;5167895;27;20023;-75
2024/04/23 06:08:04;;;;;;;10.93;5.60;;;;;;;;;;5168855;27;20445;-75
2024/04/23 06:10:30;;;;;;;8.80;4.77;;;;;;;;;;5177432;27;20426;-73
2024/04/23 06:12:56;;;;;;;9.70;5.70;;;;;;;;;;5162045;27;20020;-75
2024/04/23 06:15:22;;;;;;;9.87;5.00;;;;;;;;;;5163455;27;20409;-75
2024/04/23 06:17:48;;;;;;;12.10;4.90;;;;;;;;;;5162018;27;20139;-76
2024/04/23 06:20:14;;;;;;;9.60;4.50;;;;;;;;;;5169221;27;20004;-76
2024/04/23 06:22:40;;;;;;;15.03;4.90;;;;;;;;;;5169873;27;20015;-74
2024/04/23 06:25:07;;;;;;;9.47;5.27;;;;;;;;;;5162347;27;20012;-75
2024/04/23 06:27:36;;;;;;;9.73;4.90;;;;;;;;;;5168013;27;20026;-76
2024/04/23 06:30:09;;;;;;;7.73;4.43;;;;;;;;;;5159774;27;20301;-75
2024/04/23 06:32:39;;;;;;;15.37;5.40;;;;;;;;;;5161191;27;20001;-75
2024/04/23 06:35:06;;;;;;;11.10;6.10;;;;;;;;;;5162923;27;20040;-77
2024/04/23 06:37:33;;;;;;;11.07;5.17;;;;;;;;;;5192609;27;20000;-74
2024/04/23 06:39:59;;;;;;;10.30;4.57;;;;;;;;;;5187256;27;20000;-74
2024/04/23 06:42:28;;;;;;;6.97;4.83;;;;;;;;;;5157624;27;20024;-77
2024/04/23 06:44:54;;;;;;;13.73;5.83;;;;;;;;;;5154907;27;20023;-76
2024/04/23 06:47:20;;;;;;;10.83;5.33;;;;;;;;;;5157138;27;20012;-76
2024/04/23 06:49:46;;;;;;;9.50;5.90;;;;;;;;;;5157054;27;20019;-76
2024/04/23 06:52:14;;;;;;;9.40;5.50;;;;;;;;;;5162882;27;20004;-76
2024/04/23 06:54:41;;;;;;;10.70;5.17;;;;;;;;;;5160516;27;20455;-74
2024/04/23 06:57:06;;;;;;;9.70;5.80;;;;;;;;;;5162419;27;20000;-77
2024/04/23 06:59:34;;;;;;;8.50;5.47;;;;;;;;;;5147534;27;20004;-75
2024/04/23 07:02:02;;;;;;;11.17;5.80;;;;;;;;;;5155013;27;20023;-75
2024/04/23 07:04:27;;;;;;;14.10;5.30;;;;;;;;;;5156925;27;20012;-75
2024/04/23 07:06:53;;;;;;;12.60;6.40;;;;;;;;;;5150309;27;20488;-75
2024/04/23 07:09:20;;;;;;;10.50;5.97;;;;;;;;;;5174220;27;20375;-76
2024/04/23 07:11:46;;;;;;;8.37;5.60;;;;;;;;;;5151256;27;20611;-76
2024/04/23 07:14:11;;;;;;;8.70;5.93;;;;;;;;;;5151794;27;20011;-76
2024/04/23 07:16:42;;;;;;;8.67;5.43;;;;;;;;;;5154322;27;20008;-76
2024/04/23 07:19:08;;;;;;;12.43;6.03;;;;;;;;;;5152863;27;20012;-76
2024/04/23 07:21:34;;;;;;;10.37;5.83;;;;;;;;;;5187373;27;20016;-75
2024/04/23 07:24:00;;;;;;;10.87;6.53;;;;;;;;;;5157294;27;20001;-76
2024/04/23 07:26:25;;;;;;;10.53;5.63;;;;;;;;;;5164668;27;20009;-76
2024/04/23 07:28:51;;;;;;;10.70;5.20;;;;;;;;;;5180679;27;20016;-76
2024/04/23 07:31:17;;;;;;;8.70;5.23;;;;;;;;;;5159622;27;20015;-75
2024/04/23 07:33:43;;;;;;;11.83;6.20;;;;;;;;;;5161077;27;20023;-77
2024/04/23 07:36:09;;;;;;;8.87;5.27;;;;;;;;;;5185360;27;20514;-77
2024/04/23 07:38:36;;;;;;;9.10;5.37;;;;;;;;;;5150288;27;20350;-78
2024/04/23 07:41:02;;;;;;;9.13;5.63;;;;;;;;;;5132032;27;20669;-77
2024/04/23 07:43:28;;;;;;;10.47;5.50;;;;;;;;;;5157704;27;20005;-75
2024/04/23 07:45:53;;;;;;;8.00;5.47;;;;;;;;;;5188204;27;20080;-76
2024/04/23 07:48:19;;;;;;;10.60;5.63;;;;;;;;;;5155925;27;20044;-76
2024/04/23 07:50:45;;;;;;;9.00;5.60;;;;;;;;;;5150335;27;20040;-77
2024/04/23 07:53:11;;;;;;;9.97;5.60;;;;;;;;;;5157173;27;20004;-76
2024/04/23 07:55:40;;;;;;;9.73;5.70;;;;;;;;;;5159331;27;20008;-75
2024/04/23 07:58:06;;;;;;;10.03;5.77;;;;;;;;;;5133461;27;20028;-74
2024/04/23 08:00:33;;;;;;;7.77;4.93;;;;;;;;;;5149999;27;20873;-75
2024/04/23 08:03:05;;;;;;;11.60;5.60;;;;;;;;;;5159081;27;20088;-77
2024/04/23 08:05:31;;;;;;;8.55;5.53;;;;;;;;;;5161458;27;20693;-73
2024/04/23 08:08:02;;;;;;;13.53;5.70;;;;;;;;;;5158111;27;20013;-76
2024/04/23 08:10:28;;;;;;;12.63;6.88;;;;;;;;;;5161809;27;20023;-76
2024/04/23 08:12:54;;;;;;;10.00;6.37;;;;;;;;;;5163423;27;20000;-75
2024/04/23 08:15:23;;;;;;;14.33;6.57;;;;;;;;;;5162468;27;20495;-77
2024/04/23 08:17:50;;;;;;;10.40;5.77;;;;;;;;;;5151314;27;20421;-77
2024/04/23 08:20:16;;;;;;;8.13;5.67;;;;;;;;;;5161580;27;20004;-76
2024/04/23 08:22:43;;;;;;;7.97;5.47;;;;;;;;;;5166099;27;20123;-77
2024/04/23 08:25:23;;;;;;;8.83;5.23;;;;;;;;;;5166510;27;20008;-77
2024/04/23 08:28:03;;;;;;;9.83;6.27;;;;;;;;;;5163343;27;20457;-79
2024/04/23 08:30:29;;;;;;;9.50;5.63;;;;;;;;;;5195751;27;20012;-76
2024/04/23 08:32:59;;;;;;;9.60;5.13;;;;;;;;;;5166936;27;20448;-77
2024/04/23 08:35:31;;;;;;;9.50;5.53;;;;;;;;;;5159946;27;20004;-76
2024/04/23 08:37:57;;;;;;;6.22;4.78;;;;;;;;;;5163365;27;20015;-75
2024/04/23 08:40:26;;;;;;;9.70;5.07;;;;;;;;;;5164111;27;20028;-74
2024/04/23 08:42:56;;;;;;;10.55;5.35;;;;;;;;;;5165184;27;20075;-77
2024/04/23 08:45:40;;;;;;;6.15;3.72;;;;;;;;;;5161382;27;20324;-75
2024/04/23 08:48:15;;;;;;;7.28;3.30;;;;;;;;;;5160598;27;20024;-74
2024/04/23 08:50:44;;;;;;;8.88;4.38;;;;;;;;;;5163776;27;20218;-76
2024/04/23 08:53:15;;;;;;;6.03;4.13;;;;;;;;;;5163917;27;20016;-74
2024/04/23 08:55:45;;;;;;;10.97;3.73;;;;;;;;;;5164998;27;20010;-76
2024/04/23 08:58:16;;;;;;;6.20;4.85;;;;;;;;;;5151708;27;20099;-77
2024/04/23 09:00:53;;;;;;;6.70;4.25;;;;;;;;;;5160770;27;20012;-76
2024/04/23 09:03:28;;;;;;;4.22;3.08;;;;;;;;;;5160540;27;20023;-77
2024/04/23 09:06:01;;;;;;;8.00;4.07;;;;;;;;;;5169249;27;20418;-77
2024/04/23 09:08:32;;;;;;;8.23;3.55;;;;;;;;;;5156192;27;20016;-79
2024/04/23 09:11:00;;;;;;;7.50;3.47;;;;;;;;;;5161966;27;20009;-78
2024/04/23 09:13:25;;;;;;;5.43;2.90;;;;;;;;;;5163513;27;20354;-76
2024/04/23 09:15:51;;;;;;;5.10;3.25;;;;;;;;;;5155679;27;20012;-78
2024/04/23 09:18:18;;;;;;;7.22;4.40;;;;;;;;;;5150936;27;20008;-78
2024/04/23 09:20:44;;;;;;;8.65;3.80;;;;;;;;;;5157495;27;20000;-77
2024/04/23 09:23:09;;;;;;;6.47;4.05;;;;;;;;;;5157240;27;20023;-76
2024/04/23 09:25:36;;;;;;;6.78;3.83;;;;;;;;;;5157101;27;19996;-77
2024/04/23 09:28:05;;;;;;;5.65;3.85;;;;;;;;;;5153280;27;20240;-78
2024/04/23 09:30:31;;;;;;;6.00;3.72;;;;;;;;;;5164135;27;19996;-75
2024/04/23 09:33:03;;;;;;;8.90;4.35;;;;;;;;;;5165587;27;20004;-77
2024/04/23 09:35:29;;;;;;;4.95;3.72;;;;;;;;;;5163105;27;20747;-79
2024/04/23 09:37:56;;;;;;;4.15;3.08;;;;;;;;;;5183205;27;20023;-80
2024/04/23 09:40:23;;;;;;;9.07;4.10;;;;;;;;;;5154449;27;20000;-77
2024/04/23 09:42:53;;;;;;;4.88;3.28;;;;;;;;;;5163001;27;20004;-75
2024/04/23 09:45:26;;;;;;;8.82;4.28;;;;;;;;;;5161035;27;20062;-79
2024/04/23 09:47:53;;;;;;;9.77;4.13;;;;;;;;;;5157835;27;20027;-77
2024/04/23 09:50:20;;;;;;;5.72;4.13;;;;;;;;;;5160662;27;20071;-78
2024/04/23 09:52:46;;;;;;;6.93;3.60;;;;;;;;;;5164960;27;20428;-77
2024/04/23 09:55:16;;;;;;;5.72;3.45;;;;;;;;;;5164597;27;20007;-78
2024/04/23 09:57:42;;;;;;;5.95;3.60;;;;;;;;;;5153507;27;20541;-78
2024/04/23 10:00:10;;;;;;;6.82;3.83;;;;;;;;;;5160750;27;20020;-78
2024/04/23 10:02:39;;;;;;;5.15;3.00;;;;;;;;;;5162664;27;20011;-78
2024/04/23 10:05:13;;;;;;;5.57;3.60;;;;;;;;;;5164204;27;20508;-79
2024/04/23 10:08:18;;;;;;;3.70;2.95;;;;;;;;;;5158387;27;20029;-79
2024/04/23 10:10:48;;;;;;;6.10;3.75;;;;;;;;;;5160152;27;20113;-76
2024/04/23 10:16:39;;;;;;;5.13;3.28;;;;;;;;;;5143402;27;20000;-78
2024/04/23 10:19:09;;;;;;;6.75;3.72;;;;;;;;;;5167035;27;20057;-75
2024/04/23 10:21:39;;;;;;;5.50;3.53;;;;;;;;;;5135472;27;20016;-76
2024/04/23 10:24:08;;;;;;;4.93;2.97;;;;;;;;;;5166787;27;19996;-77
2024/04/23 10:26:44;;;;;;;5.65;3.63;;;;;;;;;;5163578;27;20017;-78
2024/04/23 10:29:13;;;;;;;4.70;3.22;;;;;;;;;;5154248;27;20345;-78
2024/04/23 10:31:40;;;;;;;7.03;3.20;;;;;;;;;;5149280;27;20012;-76
2024/04/23 10:34:07;;;;;;;4.93;2.90;;;;;;;;;;5155642;27;20012;-77
2024/04/23 10:36:39;;;;;;;4.05;2.63;;;;;;;;;;5153755;27;20306;-78
2024/04/23 10:39:06;;;;;;;5.03;3.50;;;;;;;;;;5160681;27;20004;-78
2024/04/23 10:41:35;;;;;;;3.70;2.72;;;;;;;;;;5154458;27;20004;-77
2024/04/23 10:44:04;;;;;;;6.05;3.20;;;;;;;;;;5152058;27;20360;-76
2024/04/23 10:46:30;;;;;;;5.82;3.42;;;;;;;;;;5146167;27;20123;-77
2024/04/23 10:48:56;;;;;;;4.18;2.38;;;;;;;;;;5154093;27;20048;-76
2024/04/23 10:51:25;;;;;;;6.68;2.85;;;;;;;;;;5131007;27;20012;-77
2024/04/23 10:53:56;;;;;;;4.72;2.50;;;;;;;;;;5162434;27;20001;-77
2024/04/23 10:56:26;;;;;;;6.53;2.97;;;;;;;;;;5153209;27;20020;-78
2024/04/23 10:59:16;;;;;;;6.10;3.35;;;;;;;;;;5140355;27;20429;-76
2024/04/23 11:01:55;;;;;;;5.90;3.35;;;;;;;;;;5155795;27;20137;-77
2024/04/23 11:04:50;;;;;;;5.78;3.30;;;;;;;;;;5161185;27;21191;-76
2024/04/23 11:07:27;;;;;;;4.30;2.95;;;;;;;;;;5150981;27;19997;-78
2024/04/23 11:10:00;;;;;;;3.85;2.88;;;;;;;;;;5134293;27;20012;-78
2024/04/23 11:12:26;;;;;;;5.45;2.67;;;;;;;;;;5168978;27;20008;-73
2024/04/23 11:14:54;;;;;;;4.50;3.15;;;;;;;;;;5168531;27;20084;-78
2024/04/23 11:17:20;;;;;;;4.82;3.17;;;;;;;;;;5158907;27;20015;-77
2024/04/23 11:19:55;;;;;;;5.43;3.25;;;;;;;;;;5164409;27;20017;-77
2024/04/23 11:22:59;;;;;;;5.35;3.30;;;;;;;;;;5163536;27;20016;-76
2024/04/23 11:25:34;;;;;;;4.45;3.13;;;;;;;;;;5113053;27;20124;-79
2024/04/23 11:28:03;;;;;;;5.13;3.72;;;;;;;;;;5163126;27;20001;-77
2024/04/23 11:30:29;;;;;;;5.13;3.33;;;;;;;;;;5137292;27;20080;-77
2024/04/23 11:32:58;;;;;;;6.40;2.95;;;;;;;;;;5160924;27;20491;-77
2024/04/23 11:35:24;;;;;;;8.23;3.53;;;;;;;;;;5157688;27;20012;-77
2024/04/23 11:37:58;;;;;;;4.63;3.13;;;;;;;;;;5187369;27;20035;-76
2024/04/23 11:40:29;;;;;;;6.45;3.25;;;;;;;;;;5163698;27;20012;-77
2024/04/23 11:42:57;;;;;;;5.90;3.30;;;;;;;;;;5135326;27;20521;-77
2024/04/23 11:45:23;;;;;;;5.00;3.22;;;;;;;;;;5130742;27;20089;-76
2024/04/23 11:47:53;;;;;;;3.67;2.60;;;;;;;;;;5157900;27;20008;-76
2024/04/23 11:50:24;;;;;;;4.15;3.05;;;;;;;;;;5165356;27;20465;-74
2024/04/23 11:52:51;;;;;;;5.67;3.50;;;;;;;;;;5177262;27;20008;-77
2024/04/23 11:55:22;;;;;;;5.63;3.35;;;;;;;;;;5158461;27;20306;-77
2024/04/23 11:57:48;;;;;;;6.38;3.58;;;;;;;;;;5158192;27;20562;-77
2024/04/23 12:00:14;;;;;;;6.57;3.25;;;;;;;;;;5134538;27;20004;-76
2024/04/23 12:02:41;;;;;;;4.10;2.92;;;;;;;;;;5186842;27;20560;-78
2024/04/23 12:05:07;;;;;;;7.65;2.92;;;;;;;;;;5135093;27;20018;-76
2024/04/23 12:07:43;;;;;;;5.03;2.83;;;;;;;;;;5163680;27;20112;-77
2024/04/23 12:10:26;;;;;;;4.05;2.97;;;;;;;;;;5131554;27;20420;-78
2024/04/23 12:12:52;;;;;;;5.35;4.03;;;;;;;;;;5165134;27;20004;-77
2024/04/23 12:15:18;;;;;;;3.40;2.60;;;;;;;;;;5162987;27;20009;-78
2024/04/23 12:17:45;;;;;;;7.32;3.33;;;;;;;;;;5163252;27;20092;-77
2024/04/23 12:20:12;;;;;;;5.88;2.88;;;;;;;;;;5161979;27;20009;-75
2024/04/23 12:22:44;;;;;;;4.35;3.03;;;;;;;;;;5162739;27;20090;-76
2024/04/23 12:25:16;;;;;;;;;;;;;;;;;;5134857;27;20423;-76
2024/04/23 12:27:46;;;;;;;4.15;2.72;;;;;;;;;;5160573;27;19954;-76
2024/04/23 12:30:28;;;;;;;5.55;2.85;;;;;;;;;;5162325;27;20009;-77
2024/04/23 12:32:54;;;;;;;4.60;2.70;;;;;;;;;;5172041;27;20012;-78
2024/04/23 12:35:20;;;;;;;7.68;4.07;;;;;;;;;;5183112;27;20345;-78
2024/04/23 12:37:47;;;;;;;8.88;3.00;;;;;;;;;;5164864;27;20482;-78
2024/04/23 12:40:13;;;;;;;6.47;3.17;;;;;;;;;;5149531;27;20696;-78
2024/04/23 12:42:39;;;;;;;4.25;2.90;;;;;;;;;;5160572;27;20440;-77
2024/04/23 12:45:07;;;;;;;16.10;10.98;;;;;;;;;;5155717;27;20007;-78
2024/04/23 12:47:33;;;;;;;5.28;3.38;;;;;;;;;;5158384;27;20019;-76
2024/04/23 12:49:59;;;;;;;5.18;3.20;;;;;;;;;;5156218;27;20016;-77
2024/04/23 12:52:25;;;;;;;5.45;3.53;;;;;;;;;;5163969;27;20000;-77
2024/04/23 12:54:54;;;;;;;5.78;4.07;;;;;;;;;;5160628;27;20677;-78
2024/04/23 12:57:20;;;;;;;17.30;3.50;;;;;;;;;;5157937;27;20068;-78
2024/04/23 12:59:45;;;;;;;12.65;5.68;;;;;;;;;;5128548;27;20017;-77
2024/04/23 13:02:12;;;;;;;6.72;3.53;;;;;;;;;;5160188;27;20001;-78
2024/04/23 13:04:41;;;;;;;5.85;3.60;;;;;;;;;;5160340;27;20497;-79
2024/04/23 13:07:06;;;;;;;5.47;3.28;;;;;;;;;;5161294;27;20040;-77
2024/04/23 13:09:34;;;;;;;5.65;2.90;;;;;;;;;;5154073;27;20000;-76
2024/04/23 13:12:11;;;;;;;12.70;3.70;;;;;;;;;;5132868;27;20026;-75
2024/04/23 13:14:38;;;;;;;9.75;4.03;;;;;;;;;;5129611;27;20053;-74
2024/04/23 13:17:04;;;;;;;4.90;3.10;;;;;;;;;;5159724;27;20079;-75
2024/04/23 13:19:30;;;;;;;5.60;3.78;;;;;;;;;;5152794;27;20103;-75
2024/04/23 13:21:56;;;;;;;4.78;2.95;;;;;;;;;;5162026;27;20004;-76
2024/04/23 13:24:23;;;;;;;5.38;2.78;;;;;;;;;;5164815;27;20085;-77
2024/04/23 13:26:56;;;;;;;5.60;3.42;;;;;;;;;;5139155;27;20023;-74
2024/04/23 13:29:22;;;;;;;10.13;3.67;;;;;;;;;;5153425;27;20132;-78
2024/04/23 13:31:51;;;;;;;5.35;3.47;;;;;;;;;;5155604;27;20431;-77
2024/04/23 13:34:17;;;;;;;8.65;3.33;;;;;;;;;;5163671;27;20331;-76
2024/04/23 13:36:42;;;;;;;6.28;3.97;;;;;;;;;;5156662;27;20005;-74
2024/04/23 13:39:08;;;;;;;5.45;3.85;;;;;;;;;;5157996;27;22090;-74
2024/04/23 13:41:34;;;;;;;6.18;3.38;;;;;;;;;;5158332;27;20004;-78
2024/04/23 13:44:00;;;;;;;8.05;3.22;;;;;;;;;;5160965;27;20491;-76
2024/04/23 13:46:26;;;;;;;5.32;4.10;;;;;;;;;;5155672;27;20015;-76
2024/04/23 13:48:52;;;;;;;4.53;3.28;;;;;;;;;;5156628;27;20464;-77
2024/04/23 13:51:18;;;;;;;5.90;3.63;;;;;;;;;;5144824;27;20517;-74
2024/04/23 13:53:47;;;;;;;5.97;3.22;;;;;;;;;;5159719;27;20008;-75
2024/04/23 13:56:21;;;;;;;5.20;3.70;;;;;;;;;;5166731;27;20009;-74
2024/04/23 13:58:47;;;;;;;6.25;3.30;;;;;;;;;;5166474;27;20407;-74
2024/04/23 14:01:12;;;;;;;6.18;3.95;;;;;;;;;;5166496;27;20035;-76
2024/04/23 14:03:40;;;;;;;4.95;3.35;;;;;;;;;;5164895;27;20036;-75
2024/04/23 14:06:06;;;;;;;6.13;3.30;;;;;;;;;;5166242;27;20000;-74
2024/04/23 14:08:33;;;;;;;5.57;3.17;;;;;;;;;;5165233;27;20023;-75
2024/04/23 14:11:08;;;;;;;3.45;2.80;;;;;;;;;;5166673;27;20016;-76
2024/04/23 14:13:34;;;;;;;3.85;3.13;;;;;;;;;;5169503;27;20019;-75
2024/04/23 14:16:28;;;;;;;15.98;4.85;;;;;;;;;;5138307;27;20019;-75
2024/04/23 14:18:54;;;;;;;9.52;2.80;;;;;;;;;;5150839;27;20418;-77
2024/04/23 14:21:20;;;;;;;11.15;5.95;;;;;;;;;;5140211;27;20016;-75
2024/04/23 14:23:46;;;;;;;6.63;3.83;;;;;;;;;;5165341;27;20015;-74
2024/04/23 14:26:31;;;;;;;3.58;2.78;;;;;;;;;;5171667;27;20346;-76
2024/04/23 14:28:56;;;;;;;5.03;3.30;;;;;;;;;;5164808;27;20344;-75
2024/04/23 14:31:22;;;;;;;4.22;3.05;;;;;;;;;;5171726;27;20008;-76
2024/04/23 14:33:48;;;;;;;4.95;3.47;;;;;;;;;;5171988;27;20008;-76
2024/04/23 14:36:14;;;;;;;6.82;2.97;;;;;;;;;;5196241;27;20029;-74
2024/04/23 14:38:40;;;;;;;3.30;2.97;;;;;;;;;;5165096;27;20450;-75
2024/04/23 14:41:06;;;;;;;6.95;3.53;;;;;;;;;;5147797;27;20084;-75
2024/04/23 14:43:33;;;;;;;6.28;3.38;;;;;;;;;;5163241;27;20119;-75
2024/04/23 14:45:59;;;;;;;3.95;2.75;;;;;;;;;;5138092;27;20019;-75
2024/04/23 14:48:25;;;;;;;6.57;2.80;;;;;;;;;;5161713;27;20001;-74
2024/04/23 14:50:51;;;;;;;3.40;2.95;;;;;;;;;;5157806;27;20084;-76
2024/04/23 14:53:17;;;;;;;5.25;3.55;;;;;;;;;;5143196;27;20023;-75